Minnesota Lake, Minnesota
Current Conditions -  °F | °C
As of 11:35 PM on Wednesday 17 Dec 2014 (Local Time) from KACQ Reporting Station
Clear Clear  
Wind Chill:   Ceiling: Unl
Heat Index: 14°   Visibility: 10mi
Dew Point: 12°   Wind: 5mph
Humidity: 93%   Direction: 70°ENE
Pressure: 30.32"   Gusts: NA
Location:  43.84°N, 93.83°W
Report Text: KACQ 180535Z AUTO 07004KT 10SM CLR M10/M11 A3032 RMK AO2
Loading
Personal Weather Stations






























Interactive Weather Map New forecast layout! Learn more

10-Day Weather Forecast

Advertisements
Track Severe Weather on mobile